Time;durP1;ratioP1;P1;durP2;ratioP2;P2;SDS_P1;SDS_P2;PMS_P1;PMS_P2;Temp;Humidity;BMP_temperature;BMP_pressure;BME280_temperature;BME280_humidity;BME280_pressure;Samples;Min_cycle;Max_cycle;Signal;HPM_P1;HPM_P2
2023/07/16 00:01:13;;;;;;;;;;;16.80;99.90;;;;;;5110933;28;19933;-80
2023/07/16 00:03:39;;;;;;;;;;;16.60;99.90;;;;;;5115955;28;19916;-80
2023/07/16 00:06:05;;;;;;;;;;;16.70;99.90;;;;;;5116028;28;19908;-80
2023/07/16 00:08:30;;;;;;;;;;;16.70;99.90;;;;;;5115593;28;19957;-80
2023/07/16 00:10:56;;;;;;;;;;;16.60;99.90;;;;;;5116566;28;19914;-81
2023/07/16 00:13:22;;;;;;;;;;;16.60;99.90;;;;;;5115473;28;19911;-81
2023/07/16 00:15:48;;;;;;;;;;;16.60;99.90;;;;;;5115453;28;19912;-80
2023/07/16 00:18:13;;;;;;;;;;;16.60;99.90;;;;;;5115724;28;19915;-80
2023/07/16 00:20:39;;;;;;;;;;;16.60;99.90;;;;;;5116063;28;19907;-81
2023/07/16 00:23:06;;;;;;;;;;;16.60;99.90;;;;;;5150048;27;19974;-80
2023/07/16 00:25:32;;;;;;;;;;;16.60;99.90;;;;;;5115852;28;19939;-81
2023/07/16 00:27:58;;;;;;;;;;;16.60;99.90;;;;;;5132246;27;19918;-81
2023/07/16 00:30:24;;;;;;;;;;;16.60;99.90;;;;;;5115665;28;19912;-80
2023/07/16 00:32:50;;;;;;;;;;;16.70;99.90;;;;;;5115672;28;19908;-80
2023/07/16 00:35:16;;;;;;;;;;;16.70;99.90;;;;;;5115739;28;19911;-81
2023/07/16 00:37:42;;;;;;;;;;;16.70;99.90;;;;;;5115850;28;19987;-81
2023/07/16 00:40:08;;;;;;;;;;;16.60;99.90;;;;;;5115296;28;20439;-81
2023/07/16 00:42:39;;;;;;;;;;;16.60;99.90;;;;;;5114979;28;19943;-82
2023/07/16 00:45:09;;;;;;;;;;;16.60;99.90;;;;;;5132118;27;19908;-81
2023/07/16 00:47:35;;;;;;;;;;;16.60;99.90;;;;;;5115446;28;20315;-81
2023/07/16 00:50:05;;;;;;;;;;;16.50;99.90;;;;;;5097866;28;19907;-81
2023/07/16 00:52:32;;;;;;;;;;;16.50;99.90;;;;;;5114653;28;19908;-81
2023/07/16 00:54:58;;;;;;;;;;;16.50;99.90;;;;;;5131116;27;19988;-81
2023/07/16 00:57:39;;;;;;;;;;;16.50;99.90;;;;;;5114525;28;19912;-81
2023/07/16 01:00:06;;;;;;;;;;;16.50;99.90;;;;;;5114530;28;19938;-81
2023/07/16 01:02:31;;;;;;;;;;;16.50;99.90;;;;;;5114913;28;20605;-81
2023/07/16 01:04:57;;;;;;;;;;;16.50;99.90;;;;;;5131853;27;20022;-82
2023/07/16 01:07:57;;;;;;;;;;;16.50;99.90;;;;;;5131556;27;19912;-82
2023/07/16 01:10:25;;;;;;;;;;;16.50;99.90;;;;;;5108022;28;19912;-82
2023/07/16 01:12:52;;;;;;;;;;;16.50;99.90;;;;;;5114433;28;19904;-81
2023/07/16 01:15:18;;;;;;;;;;;16.50;99.90;;;;;;5148627;27;19908;-82
2023/07/16 01:17:45;;;;;;;;;;;16.50;99.90;;;;;;5114202;28;19980;-81
2023/07/16 01:20:11;;;;;;;;;;;16.50;99.90;;;;;;5113969;28;19907;-81
2023/07/16 01:22:52;;;;;;;;;;;16.50;99.90;;;;;;5114280;28;19908;-81
2023/07/16 01:25:29;;;;;;;;;;;16.40;99.90;;;;;;5122402;27;19916;-81
2023/07/16 01:28:13;;;;;;;;;;;16.30;99.90;;;;;;5111851;28;20313;-81
2023/07/16 01:30:41;;;;;;;;;;;16.30;99.90;;;;;;5127608;27;19922;-81
2023/07/16 01:33:26;;;;;;;;;;;16.30;99.90;;;;;;5113634;28;19915;-81
2023/07/16 01:35:52;;;;;;;;;;;16.20;99.90;;;;;;5128853;27;19922;-81
2023/07/16 01:38:18;;;;;;;;;;;16.20;99.90;;;;;;5114028;28;19907;-81
2023/07/16 01:40:44;;;;;;;;;;;16.20;99.90;;;;;;5113604;28;19914;-81
2023/07/16 01:43:10;;;;;;;;;;;16.10;99.90;;;;;;5113912;28;19907;-82
2023/07/16 01:45:36;;;;;;;;;;;16.10;99.90;;;;;;5113804;28;19908;-81
2023/07/16 01:48:24;;;;;;;;;;;16.10;99.90;;;;;;5113794;28;19919;-81
2023/07/16 01:50:49;;;;;;;;;;;16.10;99.90;;;;;;5130399;27;20374;-81
2023/07/16 01:53:15;;;;;;;;;;;16.00;99.90;;;;;;5130764;27;19977;-81
2023/07/16 01:55:41;;;;;;;;;;;16.00;99.90;;;;;;5113211;28;19914;-82
2023/07/16 01:58:07;;;;;;;;;;;15.90;99.90;;;;;;5113434;28;19907;-80
2023/07/16 02:00:33;;;;;;;;;;;16.00;99.90;;;;;;5113220;28;19904;-81
2023/07/16 02:02:59;;;;;;;;;;;15.90;99.90;;;;;;5114545;28;19913;-81
2023/07/16 02:05:24;;;;;;;;;;;15.90;99.90;;;;;;5113410;28;19953;-81
2023/07/16 02:07:50;;;;;;;;;;;15.80;99.90;;;;;;5112372;28;19937;-81
2023/07/16 02:10:16;;;;;;;;;;;15.90;99.90;;;;;;5109006;28;19915;-81
2023/07/16 02:12:42;;;;;;;;;;;15.80;99.90;;;;;;5128703;27;19934;-81
2023/07/16 02:15:08;;;;;;;;;;;15.90;99.90;;;;;;5105795;28;19904;-81
2023/07/16 02:17:35;;;;;;;;;;;15.80;99.90;;;;;;5113404;28;19912;-81
2023/07/16 02:20:03;;;;;;;;;;;15.90;99.90;;;;;;5102577;28;20293;-81
2023/07/16 02:22:29;;;;;;;;;;;15.80;99.90;;;;;;5113069;28;20415;-81
2023/07/16 02:24:56;;;;;;;;;;;15.80;99.90;;;;;;5111655;28;19956;-81
2023/07/16 02:30:50;;;;;;;;;;;15.70;99.90;;;;;;5110704;28;19996;-81
2023/07/16 02:33:16;;;;;;;;;;;15.70;99.90;;;;;;5092869;28;19947;-82
2023/07/16 02:35:46;;;;;;;;;;;15.70;99.90;;;;;;5108188;28;19916;-82
2023/07/16 02:38:11;;;;;;;;;;;15.70;99.90;;;;;;5091168;28;19908;-81
2023/07/16 02:40:42;;;;;;;;;;;15.60;99.90;;;;;;5129773;27;19907;-81
2023/07/16 02:43:07;;;;;;;;;;;15.60;99.90;;;;;;5112712;28;19908;-81
2023/07/16 02:45:34;;;;;;;;;;;15.60;99.90;;;;;;5112976;28;20243;-81
2023/07/16 02:48:00;;;;;;;;;;;15.50;99.90;;;;;;5112558;28;19922;-81
2023/07/16 02:50:26;;;;;;;;;;;15.50;99.90;;;;;;5112650;28;19907;-81
2023/07/16 02:52:52;;;;;;;;;;;15.50;99.90;;;;;;5112446;28;20018;-81
2023/07/16 02:55:17;;;;;;;;;;;15.40;99.90;;;;;;5112009;28;19959;-81
2023/07/16 02:57:43;;;;;;;;;;;15.40;99.90;;;;;;5113649;28;19908;-82
2023/07/16 03:00:09;;;;;;;;;;;15.30;99.90;;;;;;5112365;28;19918;-81
2023/07/16 03:02:35;;;;;;;;;;;15.30;99.90;;;;;;5112349;28;19907;-81
2023/07/16 03:05:00;;;;;;;;;;;15.30;99.90;;;;;;5112244;28;19907;-81
2023/07/16 03:07:26;;;;;;;;;;;15.30;99.90;;;;;;5113667;28;20275;-81
2023/07/16 03:09:52;;;;;;;;;;;15.20;99.90;;;;;;5129222;27;19960;-81
2023/07/16 03:12:17;;;;;;;;;;;15.20;99.90;;;;;;5105232;28;20381;-81
2023/07/16 03:14:43;;;;;;;;;;;15.20;99.90;;;;;;5129383;27;20006;-81
2023/07/16 03:17:09;;;;;;;;;;;15.10;99.90;;;;;;5112522;28;19915;-81
2023/07/16 03:19:34;;;;;;;;;;;15.10;99.90;;;;;;5146417;27;19947;-81
2023/07/16 03:22:00;;;;;;;;;;;15.10;99.90;;;;;;5113498;27;19908;-81
2023/07/16 03:24:27;;;;;;;;;;;15.10;99.90;;;;;;5111952;28;19907;-81
2023/07/16 03:26:54;;;;;;;;;;;15.10;99.90;;;;;;5112164;28;19908;-81
2023/07/16 03:29:22;;;;;;;;;;;15.10;99.90;;;;;;5111505;28;20200;-81
2023/07/16 03:31:48;;;;;;;;;;;15.00;99.90;;;;;;5112123;28;20010;-81
2023/07/16 03:34:17;;;;;;;;;;;14.90;99.90;;;;;;5128205;28;19911;-81
2023/07/16 03:36:43;;;;;;;;;;;14.90;99.90;;;;;;5090626;28;20002;-81
2023/07/16 03:39:09;;;;;;;;;;;14.80;99.90;;;;;;5111087;28;19919;-81
2023/07/16 03:41:34;;;;;;;;;;;14.90;99.90;;;;;;5105473;28;19916;-82
2023/07/16 03:44:00;;;;;;;;;;;14.90;99.90;;;;;;5091240;28;19919;-81
2023/07/16 03:46:26;;;;;;;;;;;14.80;99.90;;;;;;5110055;28;19919;-81
2023/07/16 03:48:53;;;;;;;;;;;14.90;99.90;;;;;;5105313;28;19965;-81
2023/07/16 03:51:18;;;;;;;;;;;14.80;99.90;;;;;;5094086;28;20850;-81
2023/07/16 03:53:44;;;;;;;;;;;14.80;99.90;;;;;;5109450;28;19912;-80
2023/07/16 03:56:10;;;;;;;;;;;14.80;99.90;;;;;;5111058;28;19919;-81
2023/07/16 03:58:35;;;;;;;;;;;14.80;99.90;;;;;;5102826;28;20278;-81
2023/07/16 04:01:04;;;;;;;;;;;14.80;99.90;;;;;;5111115;28;19907;-80
2023/07/16 04:03:30;;;;;;;;;;;14.80;99.90;;;;;;5097714;28;20056;-81
2023/07/16 04:06:02;;;;;;;;;;;14.80;99.90;;;;;;5103640;28;19912;-80
2023/07/16 04:08:28;;;;;;;;;;;14.80;99.90;;;;;;5110025;28;19920;-81
2023/07/16 04:10:54;;;;;;;;;;;14.80;99.90;;;;;;5117876;28;20382;-80
2023/07/16 04:13:19;;;;;;;;;;;14.70;99.90;;;;;;5093687;28;19960;-80
2023/07/16 04:15:45;;;;;;;;;;;14.70;99.90;;;;;;5105730;28;19960;-80
2023/07/16 04:18:11;;;;;;;;;;;14.70;99.90;;;;;;5111007;28;20362;-80
2023/07/16 04:20:37;;;;;;;;;;;14.70;99.90;;;;;;5110300;28;19919;-80
2023/07/16 04:23:02;;;;;;;;;;;14.60;99.90;;;;;;5110334;28;19916;-80
2023/07/16 04:25:28;;;;;;;;;;;14.60;99.90;;;;;;5110724;28;19919;-80
2023/07/16 04:27:54;;;;;;;;;;;14.60;99.90;;;;;;5104521;28;19916;-81
2023/07/16 04:30:19;;;;;;;;;;;14.60;99.90;;;;;;5110527;28;20010;-81
2023/07/16 04:32:45;;;;;;;;;;;14.60;99.90;;;;;;5106516;28;19918;-81
2023/07/16 04:35:11;;;;;;;;;;;14.70;99.90;;;;;;5114495;28;20510;-81
2023/07/16 04:37:36;;;;;;;;;;;14.60;99.90;;;;;;5104782;28;19957;-81
2023/07/16 04:40:04;;;;;;;;;;;14.50;99.90;;;;;;5097334;28;19916;-81
2023/07/16 04:42:29;;;;;;;;;;;14.60;99.90;;;;;;5109160;28;19923;-81
2023/07/16 04:44:55;;;;;;;;;;;14.60;99.90;;;;;;5114630;28;20421;-81
2023/07/16 04:47:21;;;;;;;;;;;14.60;99.90;;;;;;5108812;28;20006;-81
2023/07/16 04:49:47;;;;;;;;;;;14.70;99.90;;;;;;5114109;28;19915;-81
2023/07/16 04:52:13;;;;;;;;;;;14.70;99.90;;;;;;5104854;28;20275;-81
2023/07/16 04:54:39;;;;;;;;;;;14.60;99.90;;;;;;5114531;28;19912;-81
2023/07/16 04:57:06;;;;;;;;;;;14.70;99.90;;;;;;5084541;28;20383;-81
2023/07/16 04:59:31;;;;;;;;;;;14.60;99.90;;;;;;5114361;28;19954;-81
2023/07/16 05:01:57;;;;;;;;;;;14.70;99.90;;;;;;5113369;28;20004;-81
2023/07/16 05:04:57;;;;;;;;;;;14.80;99.90;;;;;;5111829;28;19937;-81
2023/07/16 05:07:22;;;;;;;;;;;14.80;99.90;;;;;;5130350;27;19979;-80
2023/07/16 05:09:48;;;;;;;;;;;14.90;99.90;;;;;;5107933;28;20449;-81
2023/07/16 05:12:14;;;;;;;;;;;14.70;99.90;;;;;;5096691;28;19912;-80
2023/07/16 05:14:44;;;;;;;;;;;14.60;99.90;;;;;;5110836;28;19938;-81
2023/07/16 05:17:10;;;;;;;;;;;14.40;99.90;;;;;;5096584;28;19912;-80
2023/07/16 05:19:36;;;;;;;;;;;14.30;99.90;;;;;;5107972;27;19912;-80
2023/07/16 05:22:02;;;;;;;;;;;14.30;99.90;;;;;;5113673;28;20635;-81
2023/07/16 05:24:28;;;;;;;;;;;14.30;99.90;;;;;;5100520;28;19912;-80
2023/07/16 05:26:54;;;;;;;;;;;14.30;99.90;;;;;;5096711;28;19945;-81
2023/07/16 05:29:20;;;;;;;;;;;14.30;99.90;;;;;;5094775;28;19943;-81
2023/07/16 05:31:46;;;;;;;;;;;14.40;99.90;;;;;;5112747;28;19916;-81
2023/07/16 05:34:12;;;;;;;;;;;14.40;99.90;;;;;;5129664;27;19919;-81
2023/07/16 05:36:38;;;;;;;;;;;14.60;99.90;;;;;;5104349;28;20381;-81
2023/07/16 05:39:04;;;;;;;;;;;14.80;99.90;;;;;;5103155;28;19915;-81
2023/07/16 05:41:29;;;;;;;;;;;15.10;99.90;;;;;;5112596;28;20441;-81
2023/07/16 05:43:55;;;;;;;;;;;15.30;99.90;;;;;;5129169;27;19912;-81
2023/07/16 05:46:21;;;;;;;;;;;15.40;99.90;;;;;;5112730;28;19911;-81
2023/07/16 05:48:47;;;;;;;;;;;15.40;99.90;;;;;;5110061;28;19919;-81
2023/07/16 05:51:12;;;;;;;;;;;15.50;99.90;;;;;;5112620;28;19916;-81
2023/07/16 05:53:38;;;;;;;;;;;15.60;99.90;;;;;;5112956;28;19939;-81
2023/07/16 05:56:04;;;;;;;;;;;15.70;99.90;;;;;;5105338;28;19947;-81
2023/07/16 05:58:30;;;;;;;;;;;15.60;99.90;;;;;;5112530;28;19911;-81
2023/07/16 06:00:56;;;;;;;;;;;15.60;99.90;;;;;;5129392;27;19908;-81
2023/07/16 06:03:22;;;;;;;;;;;15.60;99.90;;;;;;5112428;28;19916;-81
2023/07/16 06:05:48;;;;;;;;;;;15.50;99.90;;;;;;5112380;28;20286;-81
2023/07/16 06:08:14;;;;;;;;;;;15.40;99.90;;;;;;5111573;28;20290;-81
2023/07/16 06:10:39;;;;;;;;;;;15.40;99.90;;;;;;5146895;27;19916;-82
2023/07/16 06:13:05;;;;;;;;;;;15.50;99.90;;;;;;5111023;28;19920;-82
2023/07/16 06:15:31;;;;;;;;;;;15.70;99.90;;;;;;5111224;28;19915;-81
2023/07/16 06:17:56;;;;;;;;;;;15.70;99.90;;;;;;5128915;27;19919;-81
2023/07/16 06:20:22;;;;;;;;;;;15.70;99.90;;;;;;5110852;28;19916;-81
2023/07/16 06:22:48;;;;;;;;;;;15.70;99.90;;;;;;5129183;27;19942;-81
2023/07/16 06:25:15;;;;;;;;;;;15.90;99.90;;;;;;5111585;28;20006;-81
2023/07/16 06:27:42;;;;;;;;;;;16.00;99.90;;;;;;5110274;28;19920;-82
2023/07/16 06:30:08;;;;;;;;;;;16.20;99.90;;;;;;5092018;28;20390;-82
2023/07/16 06:32:34;;;;;;;;;;;16.30;99.90;;;;;;5111716;28;20430;-81
2023/07/16 06:35:00;;;;;;;;;;;16.40;99.90;;;;;;5127767;27;19912;-82
2023/07/16 06:37:26;;;;;;;;;;;16.60;99.90;;;;;;5113487;28;19912;-82
2023/07/16 06:39:52;;;;;;;;;;;16.80;99.90;;;;;;5109766;28;19918;-81
2023/07/16 06:42:17;;;;;;;;;;;16.90;99.90;;;;;;5106375;28;19911;-81
2023/07/16 06:45:14;;;;;;;;;;;17.10;99.90;;;;;;5111696;28;20371;-81
2023/07/16 06:47:40;;;;;;;;;;;17.20;99.90;;;;;;5095279;28;19996;-81
2023/07/16 06:50:06;;;;;;;;;;;17.30;99.90;;;;;;5129098;27;19954;-82
2023/07/16 06:52:32;;;;;;;;;;;17.10;99.90;;;;;;5113162;27;19912;-81
2023/07/16 06:54:57;;;;;;;;;;;17.00;99.90;;;;;;5112871;28;19952;-82
2023/07/16 06:57:23;;;;;;;;;;;16.90;99.90;;;;;;5102127;28;19917;-82
2023/07/16 07:00:17;;;;;;;;;;;16.80;99.90;;;;;;5111277;28;19915;-81
2023/07/16 07:02:42;;;;;;;;;;;16.60;99.90;;;;;;5105096;28;20018;-81
2023/07/16 07:05:08;;;;;;;;;;;16.50;99.90;;;;;;5111694;28;20016;-82
2023/07/16 07:10:40;;;;;;;;;;;16.40;99.90;;;;;;5104951;28;19915;-81
2023/07/16 07:13:06;;;;;;;;;;;16.40;99.90;;;;;;5129057;27;19912;-81
2023/07/16 07:15:32;;;;;;;;;;;16.50;99.90;;;;;;5112148;28;20436;-81
2023/07/16 07:17:57;;;;;;;;;;;16.50;99.90;;;;;;5111917;28;19919;-81
2023/07/16 07:20:23;;;;;;;;;;;16.60;99.90;;;;;;5111900;28;19964;-81
2023/07/16 07:22:49;;;;;;;;;;;16.60;99.90;;;;;;5111494;28;19964;-81
2023/07/16 07:25:49;;;;;;;;;;;16.70;99.90;;;;;;5111903;28;19912;-81
2023/07/16 07:28:15;;;;;;;;;;;17.00;99.90;;;;;;5111028;28;20700;-81
2023/07/16 07:30:41;;;;;;;;;;;17.40;99.90;;;;;;5111940;28;19916;-81
2023/07/16 07:33:06;;;;;;;;;;;17.90;99.90;;;;;;5112147;28;19912;-81
2023/07/16 07:35:32;;;;;;;;;;;18.00;99.90;;;;;;5111650;28;19916;-81
2023/07/16 07:38:04;;;;;;;;;;;18.10;99.90;;;;;;5112221;28;19912;-81
2023/07/16 07:40:30;;;;;;;;;;;18.30;99.90;;;;;;5111769;28;19918;-81
2023/07/16 07:42:56;;;;;;;;;;;18.60;99.90;;;;;;5112200;28;19911;-81
2023/07/16 07:45:21;;;;;;;;;;;18.60;99.90;;;;;;5111451;28;20271;-81
2023/07/16 07:47:48;;;;;;;;;;;18.60;99.90;;;;;;5113186;28;19916;-81
2023/07/16 07:50:14;;;;;;;;;;;18.60;99.90;;;;;;5111326;28;20014;-82
2023/07/16 07:52:40;;;;;;;;;;;18.50;99.90;;;;;;5111633;28;20003;-81
2023/07/16 07:55:06;;;;;;;;;;;18.30;99.90;;;;;;5111522;28;19964;-81
2023/07/16 07:57:31;;;;;;;;;;;18.20;99.90;;;;;;5111609;28;19912;-81
2023/07/16 07:59:57;;;;;;;;;;;18.50;99.90;;;;;;5128630;28;19976;-82
2023/07/16 08:02:24;;;;;;;;;;;19.70;99.90;;;;;;5111249;28;19998;-82
2023/07/16 08:04:55;;;;;;;;;;;19.70;99.90;;;;;;5112585;28;20311;-82
2023/07/16 08:07:25;;;;;;;;;;;20.00;99.90;;;;;;5115294;28;20629;-82
2023/07/16 08:09:51;;;;;;;;;;;21.60;99.90;;;;;;5115229;28;20020;-82
2023/07/16 08:12:16;;;;;;;;;;;22.80;99.90;;;;;;5116344;27;19992;-82
2023/07/16 08:14:42;;;;;;;;;;;23.00;99.90;;;;;;5116727;28;20015;-82
2023/07/16 08:17:08;;;;;;;;;;;23.00;99.90;;;;;;5115584;28;19919;-82
2023/07/16 08:19:34;;;;;;;;;;;23.20;99.90;;;;;;5115119;28;19912;-82
2023/07/16 08:21:59;;;;;;;;;;;22.70;99.90;;;;;;5132283;27;19964;-82
2023/07/16 08:24:25;;;;;;;;;;;22.70;99.90;;;;;;5114933;28;20016;-82
2023/07/16 08:26:51;;;;;;;;;;;22.30;99.90;;;;;;5115016;28;19919;-82
2023/07/16 08:29:17;;;;;;;;;;;21.80;99.90;;;;;;5148845;27;19920;-82
2023/07/16 08:31:42;;;;;;;;;;;20.70;99.90;;;;;;5131533;27;19916;-82
2023/07/16 08:34:08;;;;;;;;;;;19.90;99.90;;;;;;5114694;28;20010;-82
2023/07/16 08:36:34;;;;;;;;;;;19.40;99.90;;;;;;5114966;28;20633;-82
2023/07/16 08:38:59;;;;;;;;;;;19.30;99.90;;;;;;5114581;28;19916;-82
2023/07/16 08:41:25;;;;;;;;;;;19.20;99.90;;;;;;5114568;28;19924;-82
2023/07/16 08:43:51;;;;;;;;;;;19.50;99.90;;;;;;5097510;28;19912;-82
2023/07/16 08:46:17;;;;;;;;;;;20.00;99.90;;;;;;5114707;28;19919;-82
2023/07/16 08:48:44;;;;;;;;;;;19.70;99.90;;;;;;5114486;28;19947;-83
2023/07/16 08:51:11;;;;;;;;;;;19.50;99.90;;;;;;5115412;27;20383;-82
2023/07/16 08:53:37;;;;;;;;;;;19.30;99.90;;;;;;5130834;27;19915;-82
2023/07/16 08:56:05;;;;;;;;;;;19.00;99.90;;;;;;5114046;28;19961;-82
2023/07/16 08:58:31;;;;;;;;;;;18.80;99.90;;;;;;5148215;27;20014;-82
2023/07/16 09:00:58;;;;;;;;;;;18.80;99.90;;;;;;5114399;28;19916;-82
2023/07/16 09:03:23;;;;;;;;;;;19.00;99.90;;;;;;5114343;28;20324;-82
2023/07/16 09:05:49;;;;;;;;;;;19.00;99.90;;;;;;5148424;27;19916;-82
2023/07/16 09:08:15;;;;;;;;;;;18.90;99.90;;;;;;5113887;28;19915;-81
2023/07/16 09:10:41;;;;;;;;;;;18.80;99.90;;;;;;5123075;27;19919;-82
2023/07/16 09:13:07;;;;;;;;;;;18.60;99.90;;;;;;5114294;28;20018;-81
2023/07/16 09:15:34;;;;;;;;;;;18.90;99.90;;;;;;5114904;28;20058;-82
2023/07/16 09:17:59;;;;;;;;;;;19.80;99.90;;;;;;5130049;27;19911;-82
2023/07/16 09:20:27;;;;;;;;;;;20.30;99.90;;;;;;5108554;28;20632;-82
2023/07/16 09:22:55;;;;;;;;;;;20.20;99.90;;;;;;5108762;28;19968;-82
2023/07/16 09:25:25;;;;;;;;;;;20.60;99.90;;;;;;5111972;28;19954;-82
2023/07/16 09:27:51;;;;;;;;;;;21.80;99.90;;;;;;5110630;28;20255;-82
2023/07/16 09:30:16;;;;;;;;;;;23.00;99.90;;;;;;5112115;28;19926;-82
2023/07/16 09:32:43;;;;;;;;;;;23.40;99.90;;;;;;5111576;28;19916;-82
2023/07/16 09:35:13;;;;;;;;;;;21.90;99.90;;;;;;5147099;27;19919;-82
2023/07/16 09:37:39;;;;;;;;;;;21.00;99.90;;;;;;5109660;28;20108;-82
2023/07/16 09:40:08;;;;;;;;;;;20.50;99.90;;;;;;5112755;28;19908;-82
2023/07/16 09:42:36;;;;;;;;;;;19.80;99.90;;;;;;5112032;28;20081;-81
2023/07/16 09:45:02;;;;;;;;;;;19.80;99.90;;;;;;5109450;28;20325;-82
2023/07/16 09:47:28;;;;;;;;;;;19.90;99.90;;;;;;5110919;28;19912;-82
2023/07/16 09:49:54;;;;;;;;;;;19.90;99.90;;;;;;5103245;28;20632;-82
2023/07/16 09:52:20;;;;;;;;;;;19.80;99.90;;;;;;5127116;27;20268;-82
2023/07/16 09:54:53;;;;;;;;;;;19.50;99.90;;;;;;5124145;27;19912;-82
2023/07/16 09:57:39;;;;;;;;;;;19.40;99.90;;;;;;5110759;28;19918;-82
2023/07/16 10:00:25;;;;;;;;;;;19.60;99.90;;;;;;5107305;28;19912;-82
2023/07/16 10:02:51;;;;;;;;;;;19.50;99.90;;;;;;5101987;28;19920;-82
2023/07/16 10:05:18;;;;;;;;;;;19.40;99.90;;;;;;5122873;27;19957;-81
2023/07/16 10:07:51;;;;;;;;;;;19.50;99.90;;;;;;5109677;28;19953;-81
2023/07/16 10:10:17;;;;;;;;;;;19.80;99.90;;;;;;5135338;27;19916;-81
2023/07/16 10:12:54;;;;;;;;;;;20.30;99.90;;;;;;5110980;28;19931;-81
2023/07/16 10:15:25;;;;;;;;;;;20.10;99.90;;;;;;5103913;28;19912;-82
2023/07/16 10:18:09;;;;;;;;;;;20.10;99.90;;;;;;5141869;27;19919;-82
2023/07/16 10:20:42;;;;;;;;;;;20.20;99.90;;;;;;5080955;28;19916;-82
2023/07/16 10:23:12;;;;;;;;;;;20.10;99.90;;;;;;5112737;28;19964;-82
2023/07/16 10:25:57;;;;;;;;;;;20.10;99.90;;;;;;5105625;28;19919;-82
2023/07/16 10:28:23;;;;;;;;;;;20.20;99.90;;;;;;5108458;28;20288;-81
2023/07/16 10:30:49;;;;;;;;;;;20.00;99.90;;;;;;5111990;28;19916;-82
2023/07/16 10:33:15;;;;;;;;;;;20.20;99.90;;;;;;5110743;28;19982;-82
2023/07/16 10:35:49;;;;;;;;;;;20.40;99.90;;;;;;5109934;28;20374;-82
2023/07/16 10:38:15;;;;;;;;;;;20.90;99.90;;;;;;5104020;28;19912;-82
2023/07/16 10:40:42;;;;;;;;;;;21.50;99.90;;;;;;5112845;28;19922;-81
2023/07/16 10:43:08;;;;;;;;;;;22.00;99.90;;;;;;5091611;28;19915;-82
2023/07/16 10:45:34;;;;;;;;;;;21.80;99.90;;;;;;5113810;28;20358;-82
2023/07/16 10:47:59;;;;;;;;;;;21.60;99.90;;;;;;5111829;28;20010;-82
2023/07/16 10:50:25;;;;;;;;;;;21.80;99.90;;;;;;5112041;28;19923;-82
2023/07/16 10:52:54;;;;;;;;;;;21.70;99.90;;;;;;5112901;27;20623;-82
2023/07/16 10:55:20;;;;;;;;;;;21.70;99.90;;;;;;5113698;28;20300;-81
2023/07/16 10:57:47;;;;;;;;;;;21.90;99.90;;;;;;5112492;28;19920;-81
2023/07/16 11:00:13;;;;;;;;;;;22.30;99.90;;;;;;5112699;28;19923;-82
2023/07/16 11:02:43;;;;;;;;;;;22.40;99.90;;;;;;5112031;28;19919;-82
2023/07/16 11:05:15;;;;;;;;;;;22.70;99.90;;;;;;5112501;28;20008;-82
2023/07/16 11:07:44;;;;;;;;;;;22.80;99.90;;;;;;5111665;28;19920;-82
2023/07/16 11:10:10;;;;;;;;;;;22.90;99.90;;;;;;5112028;28;19919;-83
2023/07/16 11:12:36;;;;;;;;;;;23.60;99.90;;;;;;5111724;28;19907;-82
2023/07/16 11:15:02;;;;;;;;;;;23.40;99.90;;;;;;5111871;28;19911;-82
2023/07/16 11:17:28;;;;;;;;;;;23.60;99.90;;;;;;5145666;27;20354;-82
2023/07/16 11:19:54;;;;;;;;;;;23.60;99.90;;;;;;5112839;28;19911;-82
2023/07/16 11:22:24;;;;;;;;;;;23.20;99.90;;;;;;5111493;28;19943;-82
2023/07/16 11:24:50;;;;;;;;;;;23.30;99.90;;;;;;5094917;28;19951;-82
2023/07/16 11:27:20;;;;;;;;;;;23.60;99.90;;;;;;5111692;28;20010;-82
2023/07/16 11:29:57;;;;;;;11.50;3.15;;;24.20;99.90;;;;;;5105473;28;19959;-82
2023/07/16 11:32:33;;;;;;;7.28;2.45;;;24.70;99.90;;;;;;5111403;28;20047;-82
2023/07/16 11:35:00;;;;;;;12.23;3.20;;;24.30;99.90;;;;;;5112958;27;20378;-82
2023/07/16 11:37:28;;;;;;;11.32;3.58;;;24.30;99.90;;;;;;5111246;28;20023;-82
2023/07/16 11:40:16;;;;;;;8.82;2.60;;;24.30;99.90;;;;;;5093689;28;20582;-82
2023/07/16 11:43:18;;;;;;;9.52;2.22;;;24.50;99.90;;;;;;5145159;27;20130;-82
2023/07/16 11:45:48;;;;;;;6.93;2.72;;;24.80;99.90;;;;;;5110819;28;20500;-82
2023/07/16 11:48:14;;;;;;;8.38;2.75;;;24.60;99.90;;;;;;5111288;28;20042;-82
2023/07/16 11:50:40;;;;;;;6.70;2.47;;;24.40;99.30;;;;;;5111313;28;20032;-83
2023/07/16 11:53:25;;;;;;;6.10;2.53;;;24.50;99.90;;;;;;5111460;28;20102;-83
2023/07/16 11:55:50;;;;;;;7.45;2.42;;;24.60;99.90;;;;;;5111324;28;20518;-82
2023/07/16 11:58:16;;;;;;;5.90;2.42;;;24.40;97.60;;;;;;5111013;28;20115;-82
2023/07/16 12:00:42;;;;;;;10.48;2.83;;;24.10;97.60;;;;;;5093720;28;20367;-82
2023/07/16 12:03:08;;;;;;;13.90;3.28;;;23.60;98.90;;;;;;5093775;28;20501;-82
2023/07/16 12:05:33;;;;;;;8.30;2.90;;;23.50;99.40;;;;;;5110610;28;20027;-82
2023/07/16 12:07:59;;;;;;;8.45;2.58;;;23.40;99.30;;;;;;5110527;28;20024;-82
2023/07/16 12:10:25;;;;;;;9.68;3.08;;;23.20;99.70;;;;;;5093570;28;20466;-82
2023/07/16 12:12:50;;;;;;;9.07;3.22;;;22.90;99.90;;;;;;5093891;28;20019;-83
2023/07/16 12:15:16;;;;;;;7.20;2.70;;;23.00;99.70;;;;;;5093865;28;20367;-82
2023/07/16 12:17:42;;;;;;;9.82;2.75;;;23.20;99.90;;;;;;5110747;28;20088;-82
2023/07/16 12:20:08;;;;;;;7.82;2.58;;;23.50;99.70;;;;;;5111047;28;20027;-82
2023/07/16 12:22:36;;;;;;;8.70;2.60;;;23.70;99.50;;;;;;5084089;28;20119;-82
2023/07/16 12:25:02;;;;;;;7.88;2.72;;;23.70;99.90;;;;;;5097385;28;20055;-82
2023/07/16 12:27:28;;;;;;;11.88;2.85;;;23.80;98.60;;;;;;5086355;28;20044;-82
2023/07/16 12:29:53;;;;;;;10.38;2.70;;;23.80;99.40;;;;;;5109631;28;20031;-82
2023/07/16 12:32:20;;;;;;;6.53;3.03;;;23.80;99.00;;;;;;5109586;28;20077;-82
2023/07/16 12:34:46;;;;;;;5.82;2.83;;;24.30;99.90;;;;;;5103188;28;20063;-82
2023/07/16 12:37:13;;;;;;;6.97;2.75;;;24.70;99.10;;;;;;5106962;28;20043;-82
2023/07/16 12:39:39;;;;;;;9.35;2.65;;;24.70;99.00;;;;;;5101976;28;20024;-82
2023/07/16 12:42:17;;;;;;;7.10;3.63;;;24.70;97.60;;;;;;5109315;28;20030;-83
2023/07/16 12:44:42;;;;;;;10.02;2.88;;;23.40;98.70;;;;;;5109365;28;20418;-82
2023/07/16 12:47:08;;;;;;;9.43;2.38;;;23.30;99.90;;;;;;5106078;28;20070;-82
2023/07/16 12:49:35;;;;;;;7.10;2.75;;;23.90;99.70;;;;;;5110970;28;20035;-82
2023/07/16 12:52:00;;;;;;;6.00;2.75;;;24.90;99.10;;;;;;5105099;28;20114;-82
2023/07/16 12:54:36;;;;;;;12.10;2.78;;;24.90;97.00;;;;;;5145345;27;20106;-82
2023/07/16 12:57:02;;;;;;;7.63;2.95;;;24.80;97.40;;;;;;5101601;28;20027;-82
2023/07/16 12:59:28;;;;;;;7.68;2.20;;;25.20;95.60;;;;;;5111937;28;20022;-82
2023/07/16 13:01:54;;;;;;;7.18;2.80;;;25.30;94.30;;;;;;5113983;28;20470;-83
2023/07/16 13:04:20;;;;;;;5.63;2.65;;;24.80;93.40;;;;;;5107030;28;20115;-82
2023/07/16 13:06:47;;;;;;;9.25;2.45;;;24.50;94.00;;;;;;5108577;28;20627;-82
2023/07/16 13:09:14;;;;;;;10.52;2.55;;;24.70;94.50;;;;;;5089890;28;20031;-82
2023/07/16 13:11:41;;;;;;;6.05;2.25;;;24.70;95.30;;;;;;5109086;28;20043;-83
2023/07/16 13:14:07;;;;;;;8.90;2.88;;;25.30;93.90;;;;;;5116851;27;20023;-82
2023/07/16 13:16:33;;;;;;;4.55;2.50;;;25.90;92.90;;;;;;5104634;28;20030;-82
2023/07/16 13:18:59;;;;;;;7.60;2.72;;;26.10;93.10;;;;;;5112897;28;20023;-82
2023/07/16 13:21:25;;;;;;;8.00;2.83;;;26.20;92.10;;;;;;5108715;28;20032;-82
2023/07/16 13:23:51;;;;;;;5.20;2.45;;;26.00;92.00;;;;;;5112963;28;20047;-82
2023/07/16 13:26:17;;;;;;;5.80;2.42;;;26.30;91.80;;;;;;5136585;27;20031;-82
2023/07/16 13:28:43;;;;;;;7.40;2.58;;;26.10;93.10;;;;;;5109335;28;20452;-82
2023/07/16 13:31:12;;;;;;;16.85;3.65;;;26.20;91.20;;;;;;5100569;28;20055;-82
2023/07/16 13:33:38;;;;;;;5.25;2.40;;;25.90;92.40;;;;;;5093744;28;20106;-83
2023/07/16 13:36:05;;;;;;;9.85;3.03;;;25.80;91.10;;;;;;5095641;28;20102;-83
2023/07/16 13:38:31;;;;;;;5.30;2.53;;;25.90;91.60;;;;;;5111566;28;20028;-83
2023/07/16 13:40:57;;;;;;;7.97;2.58;;;25.60;91.10;;;;;;5111858;28;20367;-82
2023/07/16 13:43:27;;;;;;;10.95;3.10;;;25.50;91.70;;;;;;5104215;28;20032;-83
2023/07/16 13:45:52;;;;;;;9.63;2.70;;;25.40;91.30;;;;;;5112554;27;20442;-83
2023/07/16 13:48:18;;;;;;;7.65;2.95;;;24.90;92.00;;;;;;5100172;27;20024;-83
2023/07/16 13:51:15;;;;;;;7.47;3.13;;;24.80;93.20;;;;;;5108848;28;20038;-82
2023/07/16 13:53:41;;;;;;;8.27;3.17;;;25.60;92.10;;;;;;5109437;28;20023;-83
2023/07/16 13:56:35;;;;;;;12.00;3.03;;;26.90;90.50;;;;;;5091952;28;20483;-83
2023/07/16 13:59:01;;;;;;;8.68;2.63;;;27.20;89.60;;;;;;5103834;28;20063;-83
2023/07/16 14:01:26;;;;;;;7.60;3.00;;;27.10;89.80;;;;;;5125646;27;20118;-83
2023/07/16 14:03:52;;;;;;;9.43;2.42;;;27.10;88.10;;;;;;5091722;28;20047;-83
2023/07/16 14:06:18;;;;;;;6.32;2.72;;;26.50;87.90;;;;;;5092071;28;20506;-83
2023/07/16 14:08:44;;;;;;;8.05;2.97;;;26.00;90.30;;;;;;5137779;27;20043;-80